createdAt,value
2019-05-30T00:00:25.045Z,0.10
2019-05-30T00:02:54.026Z,0.10
2019-05-30T00:05:22.641Z,0.15
2019-05-30T00:07:50.797Z,0.20
2019-05-30T00:10:18.881Z,0.20
2019-05-30T00:12:47.047Z,0.03
2019-05-30T00:15:15.265Z,0.20
2019-05-30T00:17:43.429Z,0.20
2019-05-30T00:20:11.848Z,0.10
2019-05-30T00:22:40.351Z,0.10
2019-05-30T00:25:08.695Z,0.10
2019-05-30T00:27:36.925Z,0.13
2019-05-30T00:30:22.839Z,0.20
2019-05-30T00:32:35.348Z,0.20
2019-05-30T00:35:04.381Z,0.10
2019-05-30T00:37:32.609Z,0.20
2019-05-30T00:40:01.921Z,0.20
2019-05-30T00:42:30.439Z,0.17
2019-05-30T00:44:59.905Z,0.25
2019-05-30T00:47:28.163Z,0.20
2019-05-30T00:49:56.342Z,0.10
2019-05-30T00:52:24.490Z,0.17
2019-05-30T00:54:52.566Z,0.23
2019-05-30T00:57:20.649Z,0.10
2019-05-30T00:59:48.791Z,0.10
2019-05-30T01:02:16.945Z,0.20
2019-05-30T01:04:45.079Z,0.20
2019-05-30T01:07:13.213Z,0.20
2019-05-30T01:09:41.331Z,0.15
2019-05-30T01:12:09.509Z,0.20
2019-05-30T01:14:37.599Z,0.28
2019-05-30T01:17:05.775Z,0.15
2019-05-30T01:19:34.075Z,0.20
2019-05-30T01:22:03.376Z,0.10
2019-05-30T01:24:31.789Z,0.10
2019-05-30T01:27:01.347Z,0.10
2019-05-30T01:29:29.668Z,0.30
2019-05-30T01:31:59.456Z,0.10
2019-05-30T01:34:27.629Z,0.10
2019-05-30T01:36:55.815Z,0.20
2019-05-30T01:39:24.009Z,0.10
2019-05-30T01:41:52.173Z,0.08
2019-05-30T01:44:20.248Z,0.10
2019-05-30T01:46:48.330Z,0.10
2019-05-30T01:49:16.400Z,0.10
2019-05-30T01:51:44.479Z,0.10
2019-05-30T01:54:12.562Z,0.10
2019-05-30T01:56:41.729Z,0.10
2019-05-30T01:59:09.873Z,0.10
2019-05-30T02:01:37.970Z,0.10
2019-05-30T02:04:07.209Z,0.20
2019-05-30T02:06:38.022Z,0.10
2019-05-30T02:09:07.432Z,0.10
2019-05-30T02:11:35.636Z,0.10
2019-05-30T02:14:04.059Z,0.05
2019-05-30T02:16:32.127Z,0.20
2019-05-30T02:19:01.587Z,0.10
2019-05-30T02:21:30.236Z,0.10
2019-05-30T02:23:58.308Z,0.00
2019-05-30T02:26:26.376Z,0.17
2019-05-30T02:28:54.533Z,0.10
2019-05-30T02:31:38.330Z,0.10
2019-05-30T02:33:52.400Z,0.10
2019-05-30T02:36:20.461Z,0.10
2019-05-30T02:38:48.900Z,0.20
2019-05-30T02:41:17.065Z,0.15
2019-05-30T02:43:45.214Z,0.20
2019-05-30T02:46:13.293Z,0.10
2019-05-30T02:48:57.406Z,0.10
2019-05-30T02:51:12.697Z,0.10
2019-05-30T02:53:41.105Z,0.10
2019-05-30T02:56:10.173Z,0.15
2019-05-30T02:58:38.937Z,0.13
2019-05-30T03:01:08.765Z,0.10
2019-05-30T03:03:36.825Z,0.20
2019-05-30T03:06:06.868Z,0.10
2019-05-30T03:08:34.841Z,0.10
2019-05-30T03:11:05.091Z,0.20
2019-05-30T03:13:32.973Z,0.10
2019-05-30T03:16:02.138Z,0.10
2019-05-30T03:18:31.109Z,0.10
2019-05-30T03:20:59.345Z,0.10
2019-05-30T03:23:27.479Z,0.10
2019-05-30T03:25:55.699Z,0.13
2019-05-30T03:28:23.783Z,0.10
2019-05-30T03:30:51.943Z,0.10
2019-05-30T03:33:37.881Z,0.10
2019-05-30T03:35:50.931Z,0.10
2019-05-30T03:38:19.118Z,0.05
2019-05-30T03:40:47.273Z,0.10
2019-05-30T03:43:15.982Z,0.10
2019-05-30T03:45:45.380Z,0.13
2019-05-30T03:48:16.271Z,0.10
2019-05-30T03:50:46.202Z,0.10
2019-05-30T03:53:16.215Z,0.10
2019-05-30T03:55:46.022Z,0.10
2019-05-30T03:58:21.809Z,0.10
2019-05-30T04:00:51.705Z,0.10
2019-05-30T04:03:37.986Z,0.10
2019-05-30T04:06:10.103Z,0.00
2019-05-30T04:08:38.058Z,0.10
2019-05-30T04:11:09.959Z,0.05
2019-05-30T04:13:42.124Z,0.20
2019-05-30T04:16:11.067Z,0.10
2019-05-30T04:18:39.487Z,0.10
2019-05-30T04:21:08.535Z,0.00
2019-05-30T04:23:37.140Z,0.10
2019-05-30T04:26:05.230Z,0.10
2019-05-30T04:28:33.412Z,0.10
2019-05-30T04:31:02.637Z,0.20
2019-05-30T04:33:33.560Z,0.10
2019-05-30T04:36:00.533Z,0.10
2019-05-30T04:38:28.690Z,0.10
2019-05-30T04:40:56.841Z,0.10
2019-05-30T04:43:24.914Z,0.10
2019-05-30T04:45:53.125Z,0.10
2019-05-30T04:48:21.550Z,0.10
2019-05-30T04:50:49.717Z,0.20
2019-05-30T04:53:18.531Z,0.10
2019-05-30T04:55:47.105Z,0.25
2019-05-30T04:58:15.793Z,0.20
2019-05-30T05:00:45.035Z,0.20
2019-05-30T05:03:15.454Z,0.20
2019-05-30T05:05:43.698Z,0.20
2019-05-30T05:08:11.825Z,0.20
2019-05-30T05:10:39.939Z,0.20
2019-05-30T05:13:08.014Z,0.10
2019-05-30T05:15:36.106Z,0.10
2019-05-30T05:18:04.170Z,0.20
2019-05-30T05:20:35.938Z,0.20
2019-05-30T05:23:02.043Z,0.20
2019-05-30T05:25:30.281Z,0.20
2019-05-30T05:27:59.456Z,0.13
2019-05-30T05:30:27.584Z,0.20
2019-05-30T05:32:55.743Z,0.20
2019-05-30T05:35:24.936Z,0.20
2019-05-30T05:37:53.311Z,0.25
2019-05-30T05:40:22.416Z,0.10
2019-05-30T05:42:50.801Z,0.20
2019-05-30T05:45:18.958Z,0.20
2019-05-30T05:47:47.062Z,0.20
2019-05-30T05:50:16.565Z,0.28
2019-05-30T05:52:44.934Z,0.20
2019-05-30T05:55:13.346Z,0.20
2019-05-30T05:57:41.534Z,0.20
2019-05-30T06:00:09.940Z,0.23
2019-05-30T06:02:38.033Z,0.20
2019-05-30T06:05:06.308Z,0.23
2019-05-30T06:07:34.480Z,0.30
2019-05-30T06:10:03.026Z,0.25
2019-05-30T06:12:31.128Z,0.10
2019-05-30T06:14:59.304Z,0.20
2019-05-30T06:17:27.443Z,0.20
2019-05-30T06:19:55.638Z,0.30
2019-05-30T06:22:23.723Z,0.20
2019-05-30T06:24:51.847Z,0.20
2019-05-30T06:27:20.149Z,0.20
2019-05-30T06:29:48.354Z,0.20
2019-05-30T06:32:16.422Z,0.30
2019-05-30T06:34:44.574Z,0.30
2019-05-30T06:37:13.059Z,0.40
2019-05-30T06:39:41.285Z,0.33
2019-05-30T06:42:09.461Z,0.30
2019-05-30T06:44:37.617Z,0.20
2019-05-30T06:47:05.676Z,0.20
2019-05-30T06:49:33.848Z,0.20
2019-05-30T06:52:01.942Z,0.30
2019-05-30T06:54:31.438Z,0.23
2019-05-30T06:56:59.829Z,0.25
2019-05-30T06:59:28.047Z,0.40
2019-05-30T07:01:56.283Z,0.30
2019-05-30T07:04:25.503Z,0.30
2019-05-30T07:06:54.320Z,0.30
2019-05-30T07:09:22.733Z,0.30
2019-05-30T07:11:50.898Z,0.37
2019-05-30T07:14:19.111Z,0.17
2019-05-30T07:16:47.282Z,0.30
2019-05-30T07:19:15.448Z,0.30
2019-05-30T07:21:43.714Z,0.30
2019-05-30T07:24:12.270Z,0.30
2019-05-30T07:26:40.342Z,0.20
2019-05-30T07:29:08.452Z,0.15
2019-05-30T07:31:36.609Z,0.20
2019-05-30T07:34:04.867Z,0.20
2019-05-30T07:36:34.479Z,0.20
2019-05-30T07:39:02.645Z,0.20
2019-05-30T07:41:31.211Z,0.20
2019-05-30T07:43:59.446Z,0.20
2019-05-30T07:46:27.578Z,0.10
2019-05-30T07:48:55.751Z,0.20
2019-05-30T07:51:24.609Z,0.10
2019-05-30T07:53:52.865Z,0.20
2019-05-30T07:56:20.959Z,0.10
2019-05-30T07:58:49.197Z,0.15
2019-05-30T08:01:17.355Z,0.20
2019-05-30T08:03:45.595Z,0.20
2019-05-30T08:06:13.691Z,0.20
2019-05-30T08:08:42.213Z,0.13
2019-05-30T08:11:10.500Z,0.20
2019-05-30T08:13:38.638Z,0.20
2019-05-30T08:16:06.736Z,0.20
2019-05-30T08:18:35.855Z,0.20
2019-05-30T08:21:04.245Z,0.30
2019-05-30T08:23:32.329Z,0.20
2019-05-30T08:26:01.563Z,0.20
2019-05-30T08:28:30.316Z,0.20
2019-05-30T08:30:58.579Z,0.20
2019-05-30T08:33:26.702Z,0.20
2019-05-30T08:35:54.873Z,0.20
2019-05-30T08:38:23.062Z,0.20
2019-05-30T08:40:51.211Z,0.30
2019-05-30T08:43:19.309Z,0.20
2019-05-30T08:45:47.541Z,0.23
2019-05-30T08:48:15.641Z,0.28
2019-05-30T08:50:44.833Z,0.10
2019-05-30T08:53:14.149Z,0.20
2019-05-30T08:55:42.537Z,0.20
2019-05-30T08:58:10.613Z,0.20
2019-05-30T09:00:38.681Z,0.20
2019-05-30T09:03:06.817Z,0.30
2019-05-30T09:05:35.939Z,0.30
2019-05-30T09:08:04.382Z,0.30
2019-05-30T09:10:32.544Z,0.20
2019-05-30T09:13:00.627Z,0.20
2019-05-30T09:15:29.094Z,0.30
2019-05-30T09:17:57.433Z,0.40
2019-05-30T09:20:25.761Z,0.30
2019-05-30T09:22:54.008Z,0.30
2019-05-30T09:25:22.370Z,0.20
2019-05-30T09:27:50.501Z,0.40
2019-05-30T09:30:19.360Z,0.30
2019-05-30T09:32:48.638Z,0.25
2019-05-30T09:35:18.872Z,0.33
2019-05-30T09:37:47.779Z,0.30
2019-05-30T09:40:17.021Z,0.40
2019-05-30T09:42:46.826Z,0.20
2019-05-30T09:45:15.931Z,0.40
2019-05-30T09:47:46.666Z,0.35
2019-05-30T09:50:14.039Z,0.30
2019-05-30T09:52:43.506Z,0.37
2019-05-30T09:55:12.508Z,0.40
2019-05-30T09:57:42.330Z,0.30
2019-05-30T10:00:11.321Z,0.45
2019-05-30T10:02:39.466Z,0.40
2019-05-30T10:05:07.804Z,0.20
2019-05-30T10:07:35.973Z,0.40
2019-05-30T10:10:05.654Z,0.40
2019-05-30T10:12:33.733Z,0.40
2019-05-30T10:15:01.844Z,0.35
2019-05-30T10:17:30.160Z,0.40
2019-05-30T10:19:58.712Z,0.37
2019-05-30T10:22:26.993Z,0.30
2019-05-30T10:24:55.095Z,0.20
2019-05-30T10:27:23.318Z,0.20
2019-05-30T10:29:51.532Z,0.30
2019-05-30T10:32:19.681Z,0.20
2019-05-30T10:34:48.007Z,0.40
2019-05-30T10:37:16.390Z,0.10
2019-05-30T10:39:45.566Z,0.20
2019-05-30T10:42:14.314Z,0.30
2019-05-30T10:44:42.398Z,0.10
2019-05-30T10:47:10.593Z,0.20
2019-05-30T10:49:38.774Z,0.10
2019-05-30T10:52:06.888Z,0.37
2019-05-30T10:54:35.015Z,0.20
2019-05-30T10:57:03.134Z,0.30
2019-05-30T10:59:31.357Z,0.20
2019-05-30T11:01:59.538Z,0.10
2019-05-30T11:04:27.758Z,0.20
2019-05-30T11:07:10.332Z,0.20
2019-05-30T11:09:28.776Z,0.23
2019-05-30T11:11:57.151Z,0.10
2019-05-30T11:14:26.353Z,0.20
2019-05-30T11:16:55.517Z,0.10
2019-05-30T11:19:23.792Z,0.20
2019-05-30T11:21:52.842Z,0.17
2019-05-30T11:24:21.755Z,0.10
2019-05-30T11:26:50.944Z,0.10
2019-05-30T11:29:19.863Z,0.28
2019-05-30T11:31:48.765Z,0.30
2019-05-30T11:34:17.978Z,0.20
2019-05-30T11:36:46.071Z,0.30
2019-05-30T11:39:14.171Z,0.20
2019-05-30T11:41:42.327Z,0.33
2019-05-30T11:44:10.552Z,0.17
2019-05-30T11:46:39.018Z,0.30
2019-05-30T11:49:07.106Z,0.20
2019-05-30T11:51:35.258Z,0.10
2019-05-30T11:54:03.497Z,0.20
2019-05-30T11:56:31.618Z,0.20
2019-05-30T11:59:00.169Z,0.20
2019-05-30T12:01:29.405Z,0.20
2019-05-30T12:03:58.645Z,0.13
2019-05-30T12:06:27.088Z,0.20
2019-05-30T12:08:55.239Z,0.20
2019-05-30T12:11:23.865Z,0.40
2019-05-30T12:13:53.382Z,0.20
2019-05-30T12:16:21.602Z,0.30
2019-05-30T12:18:49.826Z,0.30
2019-05-30T12:21:18.048Z,0.20
2019-05-30T12:23:46.194Z,0.30
2019-05-30T12:26:14.297Z,0.20
2019-05-30T12:28:42.373Z,0.30
2019-05-30T12:31:10.498Z,0.20
2019-05-30T12:33:38.737Z,0.20
2019-05-30T12:36:07.216Z,0.10
2019-05-30T12:38:35.374Z,0.20
2019-05-30T12:41:03.640Z,0.13
2019-05-30T12:43:31.862Z,0.10
2019-05-30T12:46:01.172Z,0.10
2019-05-30T12:48:29.427Z,0.20
2019-05-30T12:50:57.580Z,0.20
2019-05-30T12:53:25.767Z,0.10
2019-05-30T12:55:54.332Z,0.20
2019-05-30T12:58:22.516Z,0.10
2019-05-30T13:00:50.684Z,0.10
2019-05-30T13:03:18.790Z,0.20
2019-05-30T13:05:46.920Z,0.15
2019-05-30T13:08:21.739Z,0.10
2019-05-30T13:10:45.003Z,0.20
2019-05-30T13:13:13.221Z,0.20
2019-05-30T13:15:41.375Z,0.10
2019-05-30T13:18:10.598Z,0.10
2019-05-30T13:20:38.744Z,0.10
2019-05-30T13:23:07.031Z,0.15
2019-05-30T13:25:35.235Z,0.10
2019-05-30T13:28:06.608Z,0.10
2019-05-30T13:30:33.515Z,0.10
2019-05-30T13:33:02.924Z,0.20
2019-05-30T13:35:31.271Z,0.10
2019-05-30T13:37:59.331Z,0.20
2019-05-30T13:40:27.417Z,0.20
2019-05-30T13:42:55.566Z,0.10
2019-05-30T13:45:23.829Z,0.20
2019-05-30T13:47:51.974Z,0.20
2019-05-30T13:50:20.235Z,0.10
2019-05-30T13:52:48.419Z,0.10
2019-05-30T13:55:16.566Z,0.20
2019-05-30T13:57:44.637Z,0.20
2019-05-30T14:00:13.288Z,0.10
2019-05-30T14:02:41.934Z,0.20
2019-05-30T14:05:10.702Z,0.20
2019-05-30T14:07:39.073Z,0.10
2019-05-30T14:10:08.538Z,0.30
2019-05-30T14:12:37.147Z,0.20
2019-05-30T14:15:10.072Z,0.10
2019-05-30T14:17:36.773Z,0.20
2019-05-30T14:20:06.977Z,0.20
2019-05-30T14:22:36.238Z,0.15
2019-05-30T14:25:05.947Z,0.10
2019-05-30T14:27:34.027Z,0.25
2019-05-30T14:30:03.043Z,0.30
2019-05-30T14:32:31.550Z,0.20
2019-05-30T14:34:59.934Z,0.20
2019-05-30T14:37:28.011Z,0.20
2019-05-30T14:39:56.112Z,0.20
2019-05-30T14:42:24.236Z,0.10
2019-05-30T14:44:52.329Z,0.23
2019-05-30T14:47:20.456Z,0.10
2019-05-30T14:49:48.559Z,0.35
2019-05-30T14:52:17.127Z,0.30
2019-05-30T14:54:45.517Z,0.20
2019-05-30T14:57:13.673Z,0.10
2019-05-30T14:59:41.847Z,0.15
2019-05-30T15:02:11.200Z,0.20
2019-05-30T15:04:39.483Z,0.30
2019-05-30T15:07:07.687Z,0.10
2019-05-30T15:09:35.840Z,0.23
2019-05-30T15:12:04.448Z,0.20
2019-05-30T15:14:32.755Z,0.20
2019-05-30T15:17:00.933Z,0.30
2019-05-30T15:19:30.183Z,0.20
2019-05-30T15:21:58.375Z,0.30
2019-05-30T15:24:26.523Z,0.35
2019-05-30T15:26:54.613Z,0.30
2019-05-30T15:29:22.733Z,0.20
2019-05-30T15:31:50.821Z,0.30
2019-05-30T15:34:18.977Z,0.40
2019-05-30T15:36:48.209Z,0.45
2019-05-30T15:39:30.687Z,0.47
2019-05-30T15:41:46.145Z,0.40
2019-05-30T15:44:15.471Z,0.40
2019-05-30T15:46:43.946Z,0.50
2019-05-30T15:49:12.809Z,0.80
2019-05-30T15:51:41.039Z,0.88
2019-05-30T15:54:09.270Z,1.00
2019-05-30T15:56:37.420Z,0.70
2019-05-30T15:59:06.534Z,0.60
2019-05-30T16:01:34.639Z,0.60
2019-05-30T16:04:02.810Z,0.80
2019-05-30T16:06:31.074Z,0.60
2019-05-30T16:08:59.334Z,1.05
2019-05-30T16:11:27.587Z,0.50
2019-05-30T16:13:55.680Z,0.60
2019-05-30T16:16:38.931Z,0.50
2019-05-30T16:18:55.817Z,0.57
2019-05-30T16:21:23.990Z,0.60
2019-05-30T16:23:52.075Z,0.45
2019-05-30T16:26:20.158Z,0.40
2019-05-30T16:28:48.311Z,0.50
2019-05-30T16:31:17.734Z,0.40
2019-05-30T16:33:46.100Z,0.30
2019-05-30T16:36:14.216Z,0.30
2019-05-30T16:38:42.355Z,0.30
2019-05-30T16:41:10.489Z,0.60
2019-05-30T16:43:38.646Z,0.40
2019-05-30T16:46:06.837Z,0.45
2019-05-30T16:48:34.925Z,0.40
2019-05-30T16:51:04.149Z,0.40
2019-05-30T16:53:32.318Z,0.47
2019-05-30T16:56:00.508Z,0.45
2019-05-30T16:58:28.668Z,0.50
2019-05-30T17:00:56.863Z,0.62
2019-05-30T17:03:26.133Z,0.53
2019-05-30T17:05:55.440Z,0.40
2019-05-30T17:08:24.487Z,0.65
2019-05-30T17:10:52.796Z,0.50
2019-05-30T17:13:21.688Z,0.40
2019-05-30T17:15:49.884Z,0.40
2019-05-30T17:18:18.082Z,0.68
2019-05-30T17:20:46.209Z,0.50
2019-05-30T17:23:14.270Z,0.42
2019-05-30T17:25:42.491Z,0.60
2019-05-30T17:28:10.611Z,0.45
2019-05-30T17:30:38.817Z,0.40
2019-05-30T17:33:06.963Z,0.50
2019-05-30T17:35:35.067Z,0.40
2019-05-30T17:38:03.274Z,0.50
2019-05-30T17:40:43.932Z,0.50
2019-05-30T17:43:01.296Z,0.62
2019-05-30T17:45:29.588Z,0.75
2019-05-30T17:48:07.507Z,0.65
2019-05-30T17:50:27.849Z,0.40
2019-05-30T17:52:57.550Z,0.80
2019-05-30T17:55:26.022Z,0.42
2019-05-30T17:57:54.256Z,0.72
2019-05-30T18:00:22.506Z,0.50
2019-05-30T18:02:50.738Z,0.70
2019-05-30T18:05:20.342Z,0.72
2019-05-30T18:07:48.634Z,0.50
2019-05-30T18:10:17.084Z,0.50
2019-05-30T18:12:45.225Z,0.50
2019-05-30T18:15:14.284Z,0.50
2019-05-30T18:17:42.431Z,0.60
2019-05-30T18:20:11.070Z,0.40
2019-05-30T18:22:39.148Z,0.45
2019-05-30T18:25:08.066Z,0.53
2019-05-30T18:27:36.310Z,0.40
2019-05-30T18:30:08.019Z,0.50
2019-05-30T18:32:36.186Z,0.60
2019-05-30T18:35:07.151Z,0.57
2019-05-30T18:37:35.359Z,0.50
2019-05-30T18:40:04.992Z,0.60
2019-05-30T18:42:33.750Z,0.65
2019-05-30T18:45:02.304Z,0.60
2019-05-30T18:47:31.533Z,0.60
2019-05-30T18:49:59.853Z,0.55
2019-05-30T18:52:28.327Z,0.40
2019-05-30T18:54:56.718Z,0.30
2019-05-30T18:57:24.886Z,0.65
2019-05-30T18:59:54.043Z,0.60
2019-05-30T19:02:22.133Z,0.50
2019-05-30T19:04:50.259Z,0.50
2019-05-30T19:07:18.386Z,0.50
2019-05-30T19:09:46.555Z,0.50
2019-05-30T19:12:14.626Z,0.60
2019-05-30T19:14:42.779Z,0.40
2019-05-30T19:17:11.138Z,0.40
2019-05-30T19:19:39.265Z,0.42
2019-05-30T19:22:07.403Z,0.40
2019-05-30T19:24:35.665Z,0.50
2019-05-30T19:27:03.855Z,0.45
2019-05-30T19:29:32.919Z,0.30
2019-05-30T19:32:01.160Z,0.40
2019-05-30T19:34:29.330Z,0.40
2019-05-30T19:36:57.434Z,0.50
2019-05-30T19:39:25.566Z,0.40
2019-05-30T19:41:57.421Z,0.40
2019-05-30T19:44:23.650Z,0.45
2019-05-30T19:46:52.159Z,0.40
2019-05-30T19:49:20.262Z,0.37
2019-05-30T19:51:48.469Z,0.50
2019-05-30T19:54:16.657Z,0.50
2019-05-30T19:56:44.754Z,0.50
2019-05-30T19:59:12.873Z,0.42
2019-05-30T20:01:40.986Z,0.50
2019-05-30T20:04:09.156Z,0.60
2019-05-30T20:06:37.341Z,0.30
2019-05-30T20:09:06.311Z,0.40
2019-05-30T20:11:35.220Z,0.30
2019-05-30T20:14:03.442Z,0.60
2019-05-30T20:16:31.699Z,0.40
2019-05-30T20:18:59.906Z,0.40
2019-05-30T20:21:28.081Z,0.50
2019-05-30T20:23:59.424Z,0.40
2019-05-30T20:26:25.968Z,0.60
2019-05-30T20:28:54.152Z,0.50
2019-05-30T20:31:22.234Z,0.40
2019-05-30T20:33:50.413Z,0.40
2019-05-30T20:36:18.479Z,0.40
2019-05-30T20:38:46.909Z,0.40
2019-05-30T20:41:15.171Z,0.53
2019-05-30T20:43:43.252Z,0.40
2019-05-30T20:46:22.679Z,0.50
2019-05-30T20:48:43.672Z,0.30
2019-05-30T20:51:20.784Z,0.40
2019-05-30T20:53:41.253Z,0.40
2019-05-30T20:56:09.457Z,0.35
2019-05-30T20:58:37.785Z,0.53
2019-05-30T21:01:06.011Z,0.40
2019-05-30T21:03:34.177Z,0.53
2019-05-30T21:06:02.768Z,0.50
2019-05-30T21:08:31.415Z,0.30
2019-05-30T21:11:01.149Z,0.37
2019-05-30T21:13:30.777Z,0.37
2019-05-30T21:16:00.165Z,0.40
2019-05-30T21:18:29.289Z,0.50
2019-05-30T21:20:57.473Z,0.50
2019-05-30T21:23:25.616Z,0.40
2019-05-30T21:25:53.705Z,0.53
2019-05-30T21:28:21.865Z,0.53
2019-05-30T21:30:50.091Z,0.45
2019-05-30T21:33:18.266Z,0.50
2019-05-30T21:35:47.574Z,0.40
2019-05-30T21:38:16.701Z,0.40
2019-05-30T21:40:44.855Z,0.60
2019-05-30T21:43:12.985Z,0.60
2019-05-30T21:45:41.057Z,0.50
2019-05-30T21:48:09.215Z,0.55
2019-05-30T21:50:39.304Z,0.50
2019-05-30T21:53:08.141Z,0.40
2019-05-30T21:55:37.040Z,0.50
2019-05-30T21:58:05.979Z,0.60
2019-05-30T22:00:40.016Z,0.45
2019-05-30T22:03:08.508Z,0.50
2019-05-30T22:05:36.634Z,0.30
2019-05-30T22:08:04.855Z,0.50
2019-05-30T22:10:32.948Z,0.50
2019-05-30T22:13:09.294Z,0.40
2019-05-30T22:15:30.884Z,0.50
2019-05-30T22:17:59.034Z,0.50
2019-05-30T22:20:27.212Z,0.55
2019-05-30T22:22:55.361Z,0.60
2019-05-30T22:25:23.525Z,0.50
2019-05-30T22:27:52.556Z,0.50
2019-05-30T22:30:20.852Z,0.60
2019-05-30T22:32:48.936Z,0.50
2019-05-30T22:35:17.037Z,0.50
2019-05-30T22:37:45.204Z,0.50
2019-05-30T22:40:13.500Z,0.60
2019-05-30T22:42:41.623Z,0.60
2019-05-30T22:45:09.746Z,0.50
2019-05-30T22:47:37.840Z,0.60
2019-05-30T22:50:06.417Z,0.50
2019-05-30T22:52:34.531Z,0.50
2019-05-30T22:55:02.704Z,0.50
2019-05-30T22:57:30.852Z,0.42
2019-05-30T23:00:00.010Z,0.50
2019-05-30T23:02:28.087Z,0.47
2019-05-30T23:04:56.446Z,0.42
2019-05-30T23:07:24.661Z,0.40
2019-05-30T23:09:53.915Z,0.50
2019-05-30T23:12:22.224Z,0.40
2019-05-30T23:14:50.390Z,0.40
2019-05-30T23:17:18.526Z,0.50
2019-05-30T23:19:46.610Z,0.40
2019-05-30T23:22:15.747Z,0.53
2019-05-30T23:24:43.850Z,0.42
2019-05-30T23:27:12.325Z,0.53
2019-05-30T23:29:40.623Z,0.50
2019-05-30T23:32:08.720Z,0.40
2019-05-30T23:34:36.918Z,0.50
2019-05-30T23:37:05.120Z,0.40
2019-05-30T23:39:33.216Z,0.40
2019-05-30T23:42:01.303Z,0.40
2019-05-30T23:44:29.441Z,0.53
2019-05-30T23:46:57.875Z,0.30
2019-05-30T23:49:26.064Z,0.45
2019-05-30T23:51:54.635Z,0.35
2019-05-30T23:54:22.968Z,0.40
2019-05-30T23:56:52.280Z,0.40
2019-05-30T23:59:20.476Z,0.40
